createdAt,value
2023-04-02T18:43:55.321Z,26.05
2023-04-02T18:49:01.371Z,23.65
2023-04-02T18:51:32.523Z,23.22
2023-04-02T18:54:11.808Z,22.85
2023-04-02T18:56:40.057Z,22.58
2023-04-02T18:59:16.513Z,22.37
2023-04-02T19:01:47.060Z,22.18
2023-04-02T19:04:31.417Z,22.04
2023-04-02T19:07:14.250Z,21.91
2023-04-02T19:09:44.358Z,21.78
2023-04-02T19:12:22.379Z,21.69
2023-04-02T19:14:51.940Z,21.61
2023-04-02T19:17:48.615Z,21.54
2023-04-02T19:20:16.699Z,21.46
2023-04-02T19:22:52.835Z,21.40
2023-04-02T19:25:44.858Z,21.34
2023-04-02T19:28:34.034Z,21.15
2023-04-02T19:31:20.554Z,21.22
2023-04-02T19:33:50.156Z,21.18
2023-04-02T19:36:47.000Z,21.14
2023-04-02T19:39:36.893Z,21.08
2023-04-02T19:42:17.140Z,21.05
2023-04-02T19:44:48.491Z,21.00
2023-04-02T19:47:16.867Z,20.98
2023-04-02T19:49:45.454Z,20.94
2023-04-02T19:52:13.641Z,20.91
2023-04-02T19:54:41.694Z,20.88
2023-04-02T19:57:13.570Z,20.85
2023-04-02T19:59:41.648Z,20.82
2023-04-02T20:02:11.035Z,20.79
2023-04-02T20:04:39.218Z,20.76
2023-04-02T20:07:07.378Z,20.74
2023-04-02T20:09:35.556Z,20.69
2023-04-02T20:12:04.042Z,20.67
2023-04-02T20:14:32.104Z,20.66
2023-04-02T20:17:00.165Z,20.62
2023-04-02T20:19:28.715Z,20.59
2023-04-02T20:21:56.830Z,20.57
2023-04-02T20:24:24.910Z,20.55
2023-04-02T20:26:52.885Z,20.52
2023-04-02T20:29:22.963Z,20.49
2023-04-02T20:31:51.271Z,20.47
2023-04-02T20:34:19.328Z,20.44
2023-04-02T20:36:47.835Z,20.42
2023-04-02T20:39:19.416Z,20.41
2023-04-02T20:41:47.653Z,20.38
2023-04-02T20:44:16.040Z,20.36
2023-04-02T20:46:44.123Z,20.34
2023-04-02T20:49:12.387Z,20.16
2023-04-02T20:51:40.464Z,20.30
2023-04-02T20:54:08.530Z,20.28
2023-04-02T20:56:36.597Z,20.24
2023-04-02T20:59:04.877Z,20.22
2023-04-02T21:01:32.974Z,20.21
2023-04-02T21:04:02.368Z,20.19
2023-04-02T21:06:35.430Z,20.17
2023-04-02T21:09:05.763Z,20.15
2023-04-02T21:11:36.068Z,20.13
2023-04-02T21:14:04.584Z,20.11
2023-04-02T21:16:32.810Z,20.09
2023-04-02T21:19:06.050Z,20.07
2023-04-02T21:21:34.934Z,20.06
2023-04-02T21:24:04.850Z,20.04
2023-04-02T21:26:35.172Z,20.02
2023-04-02T21:29:03.589Z,19.99
2023-04-02T21:31:35.260Z,19.98
2023-04-02T21:34:03.740Z,19.97
2023-04-02T21:36:33.534Z,19.95
2023-04-02T21:39:06.601Z,19.91
2023-04-02T21:41:36.622Z,19.92
2023-04-02T21:44:05.578Z,19.91
2023-04-02T21:46:36.253Z,19.90
2023-04-02T21:49:04.449Z,19.87
2023-04-02T21:51:33.330Z,19.86
2023-04-02T21:54:01.675Z,19.84
2023-04-02T21:56:31.484Z,19.83
2023-04-02T21:59:02.205Z,19.81
2023-04-02T22:01:32.533Z,19.80
2023-04-02T22:04:02.110Z,19.78
2023-04-02T22:06:31.881Z,19.76
2023-04-02T22:09:01.739Z,19.75
2023-04-02T22:11:34.683Z,19.74
2023-04-02T22:14:06.114Z,19.73
2023-04-02T22:16:35.064Z,19.71
2023-04-02T22:19:04.687Z,19.69
2023-04-02T22:21:32.811Z,19.68
2023-04-02T22:24:01.991Z,19.67
2023-04-02T22:26:30.489Z,19.65
2023-04-02T22:28:59.063Z,19.46
2023-04-02T22:31:28.858Z,19.63
2023-04-02T22:33:57.384Z,19.61
2023-04-02T22:36:26.335Z,19.60
2023-04-02T22:38:54.297Z,19.58
2023-04-02T22:41:25.774Z,19.56
2023-04-02T22:43:54.851Z,19.55
2023-04-02T22:46:23.234Z,19.54
2023-04-02T22:48:51.406Z,19.52
2023-04-02T22:51:21.018Z,19.51
2023-04-02T22:53:49.657Z,19.49
2023-04-02T22:56:23.048Z,19.48
2023-04-02T22:58:51.227Z,19.47
2023-04-02T23:01:22.135Z,19.45
2023-04-02T23:03:50.291Z,19.44
2023-04-02T23:06:18.433Z,19.43
2023-04-02T23:08:46.837Z,19.41
2023-04-02T23:11:16.845Z,19.40
2023-04-02T23:13:45.030Z,19.37
2023-04-02T23:16:13.409Z,19.37
2023-04-02T23:18:42.514Z,19.35
2023-04-02T23:21:10.575Z,19.34
2023-04-02T23:23:38.558Z,19.32
2023-04-02T23:26:06.509Z,19.32
2023-04-02T23:28:35.498Z,19.30
2023-04-02T23:31:04.805Z,19.29
2023-04-02T23:33:32.826Z,19.27
2023-04-02T23:36:00.957Z,19.26
2023-04-02T23:38:29.035Z,19.25
2023-04-02T23:40:57.187Z,19.25
2023-04-02T23:43:25.476Z,19.22
2023-04-02T23:45:53.396Z,19.21
2023-04-02T23:48:21.340Z,19.20
2023-04-02T23:50:49.490Z,19.20
2023-04-02T23:53:18.831Z,19.19
2023-04-02T23:55:46.967Z,19.17
2023-04-02T23:58:15.129Z,19.16
